Belle River, Canada
Current Conditions -  °F | °C
As of 11:00 AM on Wednesday 22 Oct 2014 (Local Time) from CYQG Reporting Station
Broken Clouds Broken Clouds  
Wind Chill: 44°   Ceiling: 2200
Heat Index: 48°   Visibility: 15mi
Dew Point: 39°   Wind: 10mph
Humidity: 71%   Direction: 10°N
Pressure: 30.32"   Gusts: NA
Location:  42.3°N, 82.72°W
Report Text: CYQG 221500Z 01009KT 15SM BKN022 09/04 A3032 RMK SC7 SLP272
Loading
Personal Weather Stations






























Interactive Weather Map New forecast layout! Learn more

10-Day Weather Forecast

Advertisements
Track Severe Weather on mobile